Time;durP1;ratioP1;P1;durP2;ratioP2;P2;SDS_P1;SDS_P2;PMS_P1;PMS_P2;Temp;Humidity;BMP_temperature;BMP_pressure;BME280_temperature;BME280_humidity;BME280_pressure;Samples;Min_cycle;Max_cycle;Signal;HPM_P1;HPM_P2
2022/04/03 00:00:18;;;;;;;2.30;2.20;;;;;;;11.41;79.91;98477.44;5070252;28;20223;-60
2022/04/03 00:02:46;;;;;;;2.50;2.30;;;;;;;11.40;79.08;98483.44;5070089;28;20194;-62
2022/04/03 00:05:13;;;;;;;2.63;2.30;;;;;;;11.39;79.64;98479.16;5070145;28;20245;-61
2022/04/03 00:07:40;;;;;;;2.33;2.13;;;;;;;11.32;79.17;98474.91;5070005;28;20202;-61
2022/04/03 00:10:09;;;;;;;2.87;2.37;;;;;;;11.27;79.51;98472.34;5070009;28;20199;-61
2022/04/03 00:12:36;;;;;;;5.07;2.80;;;;;;;11.31;78.79;98468.91;5069981;28;20761;-61
2022/04/03 00:15:04;;;;;;;4.93;2.40;;;;;;;11.34;78.60;98471.47;5069947;28;20302;-61
2022/04/03 00:17:31;;;;;;;2.53;2.33;;;;;;;11.35;79.22;98473.16;5070018;28;20569;-61
2022/04/03 00:19:59;;;;;;;2.10;2.00;;;;;;;11.32;79.00;98477.47;5070122;28;20206;-61
2022/04/03 00:22:28;;;;;;;2.90;2.47;;;;;;;11.33;79.12;98477.47;5070146;28;20223;-60
2022/04/03 00:24:55;;;;;;;2.60;2.40;;;;;;;11.25;79.04;98474.06;5070039;28;20195;-60
2022/04/03 00:27:22;;;;;;;2.77;2.57;;;;;;;11.27;78.67;98468.06;5070184;28;20226;-60
2022/04/03 00:29:49;;;;;;;3.53;2.87;;;;;;;11.27;79.26;98475.75;5069760;28;20192;-61
2022/04/03 00:32:17;;;;;;;3.43;2.60;;;;;;;11.15;78.99;98478.34;5069975;28;20187;-60
2022/04/03 00:34:44;;;;;;;3.50;2.80;;;;;;;11.17;78.51;98483.50;5069854;28;20241;-60
2022/04/03 00:37:11;;;;;;;2.77;2.40;;;;;;;11.16;77.95;98485.22;5070123;28;20252;-60
2022/04/03 00:39:38;;;;;;;2.73;2.53;;;;;;;11.10;78.29;98479.22;5069779;28;20282;-60
2022/04/03 00:42:07;;;;;;;3.07;2.30;;;;;;;11.08;78.38;98468.09;5069676;28;20286;-60
2022/04/03 00:44:35;;;;;;;3.17;2.53;;;;;;;11.12;78.11;98442.38;5073416;28;20197;-61
2022/04/03 00:47:02;;;;;;;3.07;2.87;;;;;;;11.14;78.25;98435.53;5073709;28;20203;-60
2022/04/03 00:49:31;;;;;;;3.13;2.93;;;;;;;11.18;78.10;98432.06;5073479;28;20192;-61
2022/04/03 00:51:58;;;;;;;6.10;2.80;;;;;;;11.18;78.09;98442.34;5073787;28;20199;-62
2022/04/03 00:54:25;;;;;;;3.20;2.90;;;;;;;11.24;78.14;98434.63;5073562;28;20310;-60
2022/04/03 00:56:52;;;;;;;3.50;2.50;;;;;;;11.32;77.70;98431.19;5072271;28;20214;-61
2022/04/03 00:59:20;;;;;;;3.00;2.80;;;;;;;11.27;78.04;98423.47;5073585;28;20194;-60
2022/04/03 01:01:46;;;;;;;3.33;3.03;;;;;;;11.28;77.70;98427.78;5073370;28;20278;-60
2022/04/03 01:04:13;;;;;;;4.33;2.87;;;;;;;11.25;77.53;98431.22;5073539;28;20195;-61
2022/04/03 01:06:42;;;;;;;3.53;2.90;;;;;;;11.16;78.41;98427.81;5073280;28;20448;-61
2022/04/03 01:09:10;;;;;;;2.90;2.70;;;;;;;11.17;78.14;98407.25;5073292;28;20195;-61
2022/04/03 01:11:38;;;;;;;4.13;2.83;;;;;;;11.19;78.13;98392.66;5073642;28;20241;-60
2022/04/03 01:14:06;;;;;;;4.37;2.93;;;;;;;11.22;78.01;98378.94;5073224;28;20227;-61
2022/04/03 01:16:34;;;;;;;3.03;2.70;;;;;;;11.24;77.47;98385.78;5071764;28;20286;-60
2022/04/03 01:19:01;;;;;;;4.70;2.93;;;;;;;11.25;77.63;98379.78;5080540;28;20234;-61
2022/04/03 01:21:27;;;;;;;4.40;3.07;;;;;;;11.14;78.74;98389.25;5083645;28;20195;-61
2022/04/03 01:23:56;;;;;;;4.20;2.90;;;;;;;11.11;78.04;98380.69;5081796;28;20184;-61
2022/04/03 01:26:25;;;;;;;3.90;2.87;;;;;;;11.21;77.65;98374.66;5075601;28;20211;-61
2022/04/03 01:28:52;;;;;;;6.30;3.73;;;;;;;11.14;77.53;98348.13;5072927;28;20564;-61
2022/04/03 01:31:19;;;;;;;3.50;3.17;;;;;;;11.22;77.02;98366.94;5068647;28;20295;-61
2022/04/03 01:33:46;;;;;;;3.33;2.90;;;;;;;11.16;77.46;98384.09;5072005;28;20235;-61
2022/04/03 01:36:14;;;;;;;3.13;2.87;;;;;;;11.16;77.44;98390.09;5077736;28;20579;-60
2022/04/03 01:38:41;;;;;;;3.33;3.03;;;;;;;11.19;76.47;98377.25;5079910;28;20224;-60
2022/04/03 01:41:08;;;;;;;4.33;3.10;;;;;;;11.24;75.86;98372.06;5080234;28;20274;-60
2022/04/03 01:43:36;;;;;;;8.93;3.43;;;;;;;11.25;76.01;98382.38;5080675;28;20299;-61
2022/04/03 01:46:03;;;;;;;5.20;3.23;;;;;;;11.29;76.36;98372.06;5082564;28;20270;-61
2022/04/03 01:48:30;;;;;;;13.47;3.70;;;;;;;11.31;76.61;98380.63;5080339;28;20692;-61
2022/04/03 01:50:57;;;;;;;5.33;3.53;;;;;;;11.30;76.55;98368.63;5075152;28;20219;-61
2022/04/03 01:53:25;;;;;;;3.50;3.10;;;;;;;11.24;76.51;98356.63;5072283;28;20198;-60
2022/04/03 01:56:00;;;;;;;4.53;3.23;;;;;;;11.26;76.48;98353.19;5071709;28;20195;-60
2022/04/03 01:58:27;;;;;;;3.63;3.13;;;;;;;11.27;76.54;98361.78;5072301;28;20194;-60
2022/04/03 02:00:55;;;;;;;3.50;3.10;;;;;;;11.24;76.45;98364.34;5072066;28;20227;-61
2022/04/03 02:03:22;;;;;;;3.50;3.20;;;;;;;11.19;76.08;98366.09;5072345;28;20191;-61
2022/04/03 02:05:49;;;;;;;4.40;3.20;;;;;;;11.24;76.40;98362.66;5071270;28;20429;-61
2022/04/03 02:08:16;;;;;;;3.47;3.17;;;;;;;11.37;76.15;98366.00;5071820;28;20948;-61
2022/04/03 02:10:43;;;;;;;3.90;2.77;;;;;;;11.42;75.45;98363.41;5072065;28;20681;-61
2022/04/03 02:13:11;;;;;;;4.77;2.80;;;;;;;11.39;76.11;98360.88;5072371;28;20197;-61
2022/04/03 02:15:38;;;;;;;4.63;2.80;;;;;;;11.40;75.90;98354.88;5071915;28;20701;-61
2022/04/03 02:18:07;;;;;;;3.87;3.10;;;;;;;11.39;75.70;98360.88;5072194;28;20198;-61
2022/04/03 02:20:34;;;;;;;5.23;2.60;;;;;;;11.40;75.38;98370.31;5072220;28;21002;-61
2022/04/03 02:23:03;;;;;;;8.70;3.27;;;;;;;11.35;75.05;98366.88;5071972;28;20202;-60
2022/04/03 02:25:31;;;;;;;3.63;3.33;;;;;;;11.38;73.18;98372.88;5072085;28;20191;-60
2022/04/03 02:27:59;;;;;;;2.70;2.50;;;;;;;11.39;72.00;98378.88;5071881;28;20192;-60
2022/04/03 02:30:26;;;;;;;8.40;2.80;;;;;;;11.46;71.57;98383.09;5071950;28;20191;-60
2022/04/03 02:32:53;;;;;;;3.37;3.07;;;;;;;11.43;72.85;98383.97;5071918;28;20320;-60
2022/04/03 02:35:21;;;;;;;2.97;2.67;;;;;;;11.45;72.47;98368.56;5071456;28;20225;-60
2022/04/03 02:37:48;;;;;;;3.10;2.80;;;;;;;11.47;71.71;98372.81;5071580;28;20192;-60
2022/04/03 02:40:17;;;;;;;3.40;3.10;;;;;;;11.43;71.90;98386.53;5071838;28;20606;-60
2022/04/03 02:42:45;;;;;;;7.97;4.27;;;;;;;11.22;73.14;98389.22;5071761;28;20225;-60
2022/04/03 02:45:13;;;;;;;10.13;4.40;;;;;;;10.97;74.41;98397.88;5071396;28;20187;-60
2022/04/03 02:47:40;;;;;;;5.10;4.60;;;;;;;10.80;75.72;98400.50;5071502;28;20290;-61
2022/04/03 02:50:09;;;;;;;5.87;4.40;;;;;;;10.58;77.13;98388.53;5071361;28;20199;-60
2022/04/03 02:52:37;;;;;;;6.60;4.93;;;;;;;10.49;77.77;98391.16;5071276;28;20196;-60
2022/04/03 02:55:05;;;;;;;6.07;4.77;;;;;;;10.28;78.85;98391.13;5071324;28;20616;-60
2022/04/03 02:57:32;;;;;;;5.70;4.70;;;;;;;10.11;79.90;98385.97;5071119;28;20198;-61
2022/04/03 03:00:00;;;;;;;10.97;5.03;;;;;;;10.01;80.27;98399.66;5070807;28;20275;-60
2022/04/03 03:02:27;;;;;;;6.00;4.83;;;;;;;9.98;81.19;98394.53;5071257;28;20555;-60
2022/04/03 03:04:53;;;;;;;7.10;4.77;;;;;;;9.72;81.38;98388.53;5071465;28;20190;-61
2022/04/03 03:07:21;;;;;;;6.23;4.77;;;;;;;9.73;81.70;98382.53;5069968;28;20286;-60
2022/04/03 03:09:49;;;;;;;6.70;4.73;;;;;;;9.78;81.74;98394.50;5071065;28;20303;-61
2022/04/03 03:12:17;;;;;;;6.70;4.77;;;;;;;9.82;81.77;98401.38;5070997;28;20190;-61
2022/04/03 03:14:44;;;;;;;6.47;4.80;;;;;;;9.89;81.93;98404.78;5070831;28;20598;-61
2022/04/03 03:17:11;;;;;;;5.17;4.67;;;;;;;9.93;81.45;98403.94;5070811;28;20274;-61
2022/04/03 03:19:38;;;;;;;6.10;4.63;;;;;;;10.01;80.16;98402.22;5070785;28;20202;-61
2022/04/03 03:22:07;;;;;;;7.23;4.77;;;;;;;10.03;79.90;98406.50;5070995;28;20188;-60
2022/04/03 03:24:34;;;;;;;6.03;4.40;;;;;;;10.10;78.65;98402.25;5070877;28;20215;-60
2022/04/03 03:27:04;;;;;;;5.33;4.50;;;;;;;10.14;78.26;98403.13;5070340;28;20290;-61
2022/04/03 03:29:31;;;;;;;4.80;4.27;;;;;;;10.23;78.56;98392.84;5070928;28;20206;-60
2022/04/03 03:31:58;;;;;;;8.10;5.27;;;;;;;10.31;78.20;98393.72;5070869;28;20196;-60
2022/04/03 03:34:25;;;;;;;4.90;4.40;;;;;;;10.39;77.80;98398.00;5070726;28;20944;-60
2022/04/03 03:36:52;;;;;;;5.77;5.17;;;;;;;10.46;77.43;98406.56;5070831;28;20195;-61
2022/04/03 03:39:19;;;;;;;5.63;4.43;;;;;;;10.53;76.88;98409.09;5070820;28;20445;-59
2022/04/03 03:41:46;;;;;;;5.37;4.43;;;;;;;10.58;76.29;98427.06;5070953;28;20191;-60
2022/04/03 03:44:14;;;;;;;5.67;4.40;;;;;;;10.64;75.76;98437.34;5070574;28;20201;-60
2022/04/03 03:46:41;;;;;;;6.90;4.53;;;;;;;10.68;75.54;98437.31;5070765;28;20199;-60
2022/04/03 03:49:09;;;;;;;7.03;4.43;;;;;;;10.71;75.63;98444.19;5070494;28;20196;-61
2022/04/03 03:51:37;;;;;;;5.33;4.30;;;;;;;10.67;76.38;98442.47;5070323;28;20543;-62
2022/04/03 03:54:04;;;;;;;7.80;4.30;;;;;;;10.60;76.88;98451.88;5070476;28;20203;-60
2022/04/03 03:56:32;;;;;;;5.87;5.30;;;;;;;10.61;77.61;98455.31;5070479;28;20203;-60
2022/04/03 03:58:59;;;;;;;10.00;5.37;;;;;;;10.60;78.48;98451.06;5070554;28;20243;-60
2022/04/03 04:01:27;;;;;;;7.17;5.63;;;;;;;10.54;78.27;98453.63;5070559;28;20227;-60
2022/04/03 04:03:54;;;;;;;8.00;4.80;;;;;;;10.51;78.55;98449.34;5070708;28;20274;-61
2022/04/03 04:06:21;;;;;;;8.60;6.17;;;;;;;10.47;79.33;98455.31;5070178;28;20270;-60
2022/04/03 04:08:48;;;;;;;7.57;5.57;;;;;;;10.55;79.51;98452.75;5070318;28;20201;-62
2022/04/03 04:11:15;;;;;;;7.00;5.10;;;;;;;10.51;79.18;98441.66;5069868;28;20286;-61
2022/04/03 04:13:42;;;;;;;10.67;6.37;;;;;;;10.52;79.52;98455.34;5070151;28;20262;-61
2022/04/03 04:16:10;;;;;;;7.50;6.07;;;;;;;10.57;79.74;98453.63;5069885;28;20597;-60
2022/04/03 04:18:39;;;;;;;8.30;5.70;;;;;;;10.58;79.69;98469.03;5072524;28;20191;-60
2022/04/03 04:21:06;;;;;;;11.97;5.53;;;;;;;10.57;79.80;98458.75;5074152;28;20202;-60
2022/04/03 04:23:33;;;;;;;6.13;5.10;;;;;;;10.57;79.09;98457.06;5074232;28;20601;-60
2022/04/03 04:26:00;;;;;;;6.50;5.60;;;;;;;10.55;79.48;98463.88;5074262;28;20217;-61
2022/04/03 04:28:27;;;;;;;7.33;5.63;;;;;;;10.60;79.28;98464.72;5074381;28;20270;-60
2022/04/03 04:30:56;;;;;;;7.40;5.53;;;;;;;10.66;79.22;98464.72;5074182;28;20196;-61
2022/04/03 04:33:23;;;;;;;6.73;5.80;;;;;;;10.69;78.85;98471.56;5073961;28;20203;-60
2022/04/03 04:35:51;;;;;;;6.10;4.93;;;;;;;10.70;77.64;98463.03;5073924;28;20221;-60
2022/04/03 04:38:18;;;;;;;6.17;4.97;;;;;;;10.73;77.55;98473.31;5073952;28;20210;-60
2022/04/03 04:40:45;;;;;;;6.00;5.17;;;;;;;10.69;77.86;98471.56;5073849;28;20291;-60
2022/04/03 04:43:12;;;;;;;6.40;4.57;;;;;;;10.64;78.18;98476.72;5073844;28;20195;-61
2022/04/03 04:45:39;;;;;;;6.97;5.63;;;;;;;10.68;77.95;98482.72;5073558;28;20198;-60
2022/04/03 04:48:07;;;;;;;8.63;5.30;;;;;;;10.72;77.67;98486.13;5074089;28;20202;-59
2022/04/03 04:50:34;;;;;;;6.60;5.30;;;;;;;10.73;78.05;98480.16;5073982;28;20278;-60
2022/04/03 04:53:02;;;;;;;12.33;5.80;;;;;;;10.85;77.33;98488.69;5073664;28;20198;-61
2022/04/03 04:55:29;;;;;;;9.47;5.23;;;;;;;10.89;77.19;98495.56;5073545;28;20222;-60
2022/04/03 04:57:57;;;;;;;12.57;5.93;;;;;;;10.91;76.93;98498.97;5073831;28;20191;-60
2022/04/03 05:00:28;;;;;;;8.07;6.03;;;;;;;10.95;76.95;98512.69;5073364;28;20227;-60
2022/04/03 05:02:56;;;;;;;9.50;5.93;;;;;;;10.85;76.73;98482.72;5073718;28;20202;-60
2022/04/03 05:05:24;;;;;;;12.07;6.90;;;;;;;11.04;76.78;98513.50;5073416;28;20192;-60
2022/04/03 05:07:52;;;;;;;8.93;5.57;;;;;;;11.07;76.77;98516.06;5072669;28;20223;-60
2022/04/03 05:10:21;;;;;;;11.50;6.63;;;;;;;11.12;76.27;98513.53;5073890;28;20245;-60
2022/04/03 05:12:48;;;;;;;6.90;5.87;;;;;;;11.14;76.28;98524.66;5073355;28;20196;-60
2022/04/03 05:15:17;;;;;;;9.27;6.30;;;;;;;11.11;76.12;98517.78;5073211;28;20602;-60
2022/04/03 05:17:44;;;;;;;8.57;6.93;;;;;;;11.18;76.13;98524.63;5073073;28;20199;-59
2022/04/03 05:20:13;;;;;;;9.20;6.83;;;;;;;11.19;76.15;98525.50;5073128;28;20662;-61
2022/04/03 05:22:40;;;;;;;7.00;6.20;;;;;;;11.22;75.27;98536.63;5073429;28;20218;-60
2022/04/03 05:25:11;;;;;;;5.87;5.27;;;;;;;11.20;74.96;98543.50;5073042;28;20184;-61
2022/04/03 05:27:39;;;;;;;7.37;5.83;;;;;;;11.15;74.49;98550.34;5073307;28;20198;-62
2022/04/03 05:30:07;;;;;;;7.43;5.73;;;;;;;11.08;75.04;98556.34;5071821;28;20191;-61
2022/04/03 05:32:35;;;;;;;7.53;6.27;;;;;;;11.07;74.35;98561.50;5072798;28;20285;-61
2022/04/03 05:35:02;;;;;;;6.77;5.47;;;;;;;11.05;74.37;98561.50;5072922;28;20215;-61
2022/04/03 05:37:29;;;;;;;6.67;5.03;;;;;;;11.05;73.49;98568.34;5072959;28;20593;-60
2022/04/03 05:39:56;;;;;;;7.03;5.20;;;;;;;11.01;72.95;98572.66;5072844;28;20261;-60
2022/04/03 05:42:23;;;;;;;6.03;4.57;;;;;;;11.02;71.77;98576.06;5072847;28;20662;-61
2022/04/03 05:44:51;;;;;;;7.03;4.47;;;;;;;10.94;70.82;98581.19;5072676;28;20192;-60
2022/04/03 05:47:19;;;;;;;7.75;4.90;;;;;;;10.97;71.68;98576.06;5072483;28;20437;-60
2022/04/03 05:49:46;;;;;;;6.03;3.83;;;;;;;10.97;70.69;98586.34;5072597;28;20195;-60
2022/04/03 05:52:13;;;;;;;8.40;4.77;;;;;;;10.98;70.29;98585.50;5072408;28;20194;-60
2022/04/03 05:54:40;;;;;;;9.57;3.90;;;;;;;11.06;69.58;98598.34;5072278;28;20202;-60
2022/04/03 05:57:07;;;;;;;5.57;3.77;;;;;;;11.18;68.69;98606.88;5072509;28;20196;-59
2022/04/03 05:59:34;;;;;;;4.03;3.23;;;;;;;11.22;67.15;98597.47;5072305;28;20254;-59
2022/04/03 06:02:03;;;;;;;8.68;3.42;;;;;;;11.16;66.23;98593.19;5071726;28;20438;-60
2022/04/03 06:04:30;;;;;;;2.87;2.67;;;;;;;11.20;66.12;98589.78;5079031;28;20281;-59
2022/04/03 06:06:57;;;;;;;3.53;3.10;;;;;;;11.20;66.06;98592.34;5073501;28;20207;-60
2022/04/03 06:09:23;;;;;;;3.57;2.73;;;;;;;11.25;64.69;98590.63;5072064;28;20677;-59
2022/04/03 06:11:51;;;;;;;3.20;2.80;;;;;;;11.29;64.72;98603.47;5072249;28;20194;-60
2022/04/03 06:14:18;;;;;;;3.73;3.17;;;;;;;11.42;64.45;98618.03;5072004;28;20197;-60
2022/04/03 06:16:45;;;;;;;3.97;2.77;;;;;;;11.37;64.40;98584.59;5071600;28;20215;-60
2022/04/03 06:19:13;;;;;;;5.57;3.30;;;;;;;11.59;63.49;98606.00;5071711;28;20278;-60
2022/04/03 06:21:40;;;;;;;3.23;2.97;;;;;;;11.70;61.81;98604.28;5071613;28;20187;-61
2022/04/03 06:24:07;;;;;;;5.43;2.40;;;;;;;11.71;61.14;98612.00;5071840;28;20210;-61
2022/04/03 06:26:34;;;;;;;2.90;2.60;;;;;;;11.75;61.66;98615.44;5071554;28;20605;-61
2022/04/03 06:29:01;;;;;;;5.87;2.43;;;;;;;11.85;60.83;98617.09;5073219;28;20265;-60
2022/04/03 06:31:28;;;;;;;2.40;2.20;;;;;;;11.84;61.30;98615.38;5081625;28;20203;-60
2022/04/03 06:33:55;;;;;;;6.37;2.30;;;;;;;11.95;61.13;98617.94;5081657;28;20210;-61
2022/04/03 06:36:23;;;;;;;4.38;2.75;;;;;;;11.95;61.48;98617.94;5079893;28;20499;-61
2022/04/03 06:38:50;;;;;;;4.13;2.43;;;;;;;12.04;61.94;98612.75;5080485;28;20201;-60
2022/04/03 06:41:17;;;;;;;2.53;2.33;;;;;;;12.18;62.28;98619.56;5081437;28;20187;-61
2022/04/03 06:43:44;;;;;;;2.33;2.13;;;;;;;12.24;61.30;98610.94;5080786;28;20291;-60
2022/04/03 06:46:11;;;;;;;2.70;2.30;;;;;;;12.23;60.96;98614.38;5080257;28;20175;-60
2022/04/03 06:48:38;;;;;;;2.43;2.20;;;;;;;12.31;61.31;98618.63;5079175;28;20194;-60
2022/04/03 06:51:05;;;;;;;2.80;2.10;;;;;;;12.31;61.27;98622.94;5075703;28;20191;-60
2022/04/03 06:53:33;;;;;;;4.50;2.33;;;;;;;12.37;61.60;98625.47;5080875;28;20860;-60
2022/04/03 06:56:00;;;;;;;3.37;2.20;;;;;;;12.47;61.15;98631.47;5079573;28;20213;-60
2022/04/03 06:58:27;;;;;;;3.33;2.27;;;;;;;12.50;61.31;98634.84;5080708;28;20197;-59
2022/04/03 07:00:54;;;;;;;2.83;2.23;;;;;;;12.54;61.79;98630.53;5081091;28;20225;-61
2022/04/03 07:03:21;;;;;;;2.77;2.30;;;;;;;12.54;61.41;98639.13;5070014;28;20677;-61
2022/04/03 07:05:48;;;;;;;2.13;1.93;;;;;;;12.54;60.73;98638.28;5050895;28;20571;-61
2022/04/03 07:08:15;;;;;;;2.20;2.00;;;;;;;12.61;60.94;98645.13;5051001;28;20198;-60
2022/04/03 07:10:44;;;;;;;2.30;2.10;;;;;;;12.68;59.02;98645.06;5050707;28;20279;-61
2022/04/03 07:13:12;;;;;;;2.03;1.93;;;;;;;12.73;60.19;98642.47;5050865;28;20193;-61
2022/04/03 07:15:38;;;;;;;3.50;2.37;;;;;;;12.82;60.01;98644.97;5050717;28;20224;-61
2022/04/03 07:18:07;;;;;;;2.00;1.80;;;;;;;12.87;59.26;98656.13;5050683;28;20200;-61
2022/04/03 07:20:34;;;;;;;3.20;2.40;;;;;;;12.90;58.74;98653.53;5050139;28;20497;-61
2022/04/03 07:23:01;;;;;;;3.50;1.60;;;;;;;12.84;56.97;98674.19;5050434;28;20275;-61
2022/04/03 07:25:28;;;;;;;2.97;1.90;;;;;;;12.81;57.08;98681.94;5050538;28;20722;-60
2022/04/03 07:27:57;;;;;;;2.17;1.93;;;;;;;12.86;57.40;98668.16;5050338;28;20321;-60
2022/04/03 07:30:23;;;;;;;1.80;1.70;;;;;;;12.82;57.34;98675.91;5050026;28;20287;-60
2022/04/03 07:32:50;;;;;;;2.10;1.87;;;;;;;12.92;57.81;98672.41;5049935;28;20196;-59
2022/04/03 07:35:17;;;;;;;2.20;2.00;;;;;;;13.09;57.58;98670.63;5049215;28;20801;-60
2022/04/03 07:37:44;;;;;;;2.30;2.13;;;;;;;13.29;56.34;98666.19;5050061;28;20287;-60
2022/04/03 07:40:12;;;;;;;3.30;1.73;;;;;;;13.32;54.78;98665.28;5050458;28;20630;-60
2022/04/03 07:42:40;;;;;;;2.83;2.13;;;;;;;13.45;54.50;98666.91;5051820;28;20219;-61
2022/04/03 07:45:11;;;;;;;2.03;1.80;;;;;;;13.58;51.76;98678.81;5070271;28;20192;-59
2022/04/03 07:47:45;;;;;;;1.83;1.63;;;;;;;13.72;51.00;98684.72;5070135;28;20206;-60
2022/04/03 07:50:12;;;;;;;3.63;1.73;;;;;;;13.70;51.61;98683.00;5071658;28;20187;-60
2022/04/03 07:52:40;;;;;;;1.40;1.30;;;;;;;13.74;49.55;98680.38;5077988;28;20284;-60
2022/04/03 07:55:10;;;;;;;1.90;1.63;;;;;;;13.87;49.25;98666.47;5076795;28;20184;-61
2022/04/03 07:57:38;;;;;;;2.70;1.53;;;;;;;13.90;49.49;98674.19;5079111;28;20273;-59
2022/04/03 08:00:10;;;;;;;1.40;1.30;;;;;;;13.91;47.57;98687.97;5076168;28;20659;-60
2022/04/03 08:02:38;;;;;;;2.40;1.70;;;;;;;13.92;47.81;98684.53;5078708;28;20294;-60
2022/04/03 08:05:06;;;;;;;3.23;1.67;;;;;;;14.08;47.35;98688.66;5075545;28;20176;-61
2022/04/03 08:07:37;;;;;;;1.30;1.20;;;;;;;14.21;47.34;98685.06;5079377;28;20190;-60
2022/04/03 08:10:06;;;;;;;2.87;1.30;;;;;;;14.17;47.45;98654.97;5080478;28;20236;-60
2022/04/03 08:12:33;;;;;;;1.83;1.40;;;;;;;14.37;47.42;98678.00;5079839;28;20608;-60
2022/04/03 08:15:00;;;;;;;1.40;1.10;;;;;;;14.51;45.80;98681.28;5077842;28;20201;-60
2022/04/03 08:17:29;;;;;;;1.40;1.30;;;;;;;14.58;44.87;98681.19;5079952;28;20530;-61
2022/04/03 08:19:55;;;;;;;2.37;1.30;;;;;;;14.62;43.29;98680.28;5075197;28;20195;-61
2022/04/03 08:22:22;;;;;;;1.60;1.30;;;;;;;14.71;42.99;98698.25;5079861;28;20199;-61
2022/04/03 08:24:50;;;;;;;1.13;1.03;;;;;;;14.47;42.76;98710.63;5079538;28;20188;-60
2022/04/03 08:27:17;;;;;;;1.73;0.90;;;;;;;14.20;41.46;98706.63;5079989;28;20654;-61
2022/04/03 08:29:44;;;;;;;0.83;0.83;;;;;;;14.11;40.76;98709.28;5078112;28;20275;-61
2022/04/03 08:32:11;;;;;;;1.23;1.10;;;;;;;14.14;41.24;98704.94;5079288;28;20217;-60
2022/04/03 08:34:40;;;;;;;3.23;1.10;;;;;;;14.22;42.13;98704.00;5080106;28;20685;-61
2022/04/03 08:37:07;;;;;;;1.63;1.20;;;;;;;14.29;41.72;98710.78;5075911;28;20209;-60
2022/04/03 08:39:34;;;;;;;1.67;0.90;;;;;;;14.40;42.52;98708.97;5078980;28;20182;-60
2022/04/03 08:42:01;;;;;;;0.80;0.80;;;;;;;14.51;44.02;98704.53;5080254;28;20273;-60
2022/04/03 08:44:28;;;;;;;1.80;1.30;;;;;;;14.71;43.91;98703.44;5075920;28;20293;-61
2022/04/03 08:46:59;;;;;;;0.83;0.83;;;;;;;14.74;41.93;98716.31;5078129;28;20194;-60
2022/04/03 08:49:32;;;;;;;0.80;0.70;;;;;;;14.62;42.05;98711.28;5075183;28;20192;-58
2022/04/03 08:52:01;;;;;;;1.17;0.93;;;;;;;14.68;43.56;98729.31;5080150;28;20198;-58
2022/04/03 08:54:31;;;;;;;2.70;1.20;;;;;;;14.80;43.37;98707.63;5078823;28;20192;-58
2022/04/03 08:56:57;;;;;;;2.33;1.00;;;;;;;14.89;41.49;98710.06;5079396;28;20690;-58
2022/04/03 08:59:25;;;;;;;1.10;1.10;;;;;;;15.16;40.95;98708.84;5079394;28;20275;-58
2022/04/03 09:01:51;;;;;;;1.10;1.00;;;;;;;15.41;40.86;98723.09;5079487;28;20185;-58
2022/04/03 09:04:20;;;;;;;0.93;0.90;;;;;;;15.26;38.27;98724.22;5079189;28;20189;-58
2022/04/03 09:06:55;;;;;;;2.27;1.00;;;;;;;15.18;38.75;98712.25;5082848;28;20278;-58
2022/04/03 09:09:24;;;;;;;0.90;0.90;;;;;;;15.26;37.78;98711.28;5076481;28;20199;-58
2022/04/03 09:12:09;;;;;;;1.40;1.30;;;;;;;15.16;40.30;98716.63;5071957;28;20881;-58
2022/04/03 09:14:44;;;;;;;1.03;1.03;;;;;;;14.94;39.97;98729.00;5082423;28;20193;-58
2022/04/03 09:17:11;;;;;;;1.60;0.80;;;;;;;14.91;39.43;98730.75;5081689;28;20205;-57
2022/04/03 09:19:38;;;;;;;1.10;1.00;;;;;;;14.84;40.22;98711.88;5078807;28;20188;-57
2022/04/03 09:22:05;;;;;;;1.70;1.03;;;;;;;14.96;37.21;98716.88;5082882;28;20259;-57
2022/04/03 09:24:36;;;;;;;1.70;1.20;;;;;;;15.03;36.32;98710.75;5078648;28;20196;-58
2022/04/03 09:27:04;;;;;;;1.40;1.00;;;;;;;14.82;36.18;98713.63;5071323;28;20191;-58
2022/04/03 09:29:31;;;;;;;1.97;1.43;;;;;;;14.98;37.00;98728.06;5072795;28;20551;-59
2022/04/03 09:32:00;;;;;;;1.47;1.03;;;;;;;15.10;36.95;98719.28;5072550;28;20199;-58
2022/04/03 09:34:29;;;;;;;1.50;1.40;;;;;;;15.19;36.45;98722.56;5072390;28;20191;-59
2022/04/03 09:36:57;;;;;;;1.87;1.63;;;;;;;15.03;36.09;98730.56;5082738;28;20733;-57
2022/04/03 09:39:26;;;;;;;1.55;1.45;;;;;;;15.02;36.94;98731.47;5080912;28;20452;-58
2022/04/03 09:42:01;;;;;;;1.73;1.20;;;;;;;15.11;37.06;98728.72;5081085;28;20230;-58
2022/04/03 09:44:31;;;;;;;1.97;1.30;;;;;;;15.03;37.23;98733.16;5086315;28;20191;-58
2022/04/03 09:47:21;;;;;;;1.43;1.00;;;;;;;15.07;37.58;98735.72;5092446;28;20195;-58
2022/04/03 09:49:56;;;;;;;2.47;1.40;;;;;;;15.15;38.13;98731.28;5092084;28;20189;-58
2022/04/03 09:52:37;;;;;;;1.30;1.20;;;;;;;15.38;37.57;98713.66;5091933;28;20226;-58
2022/04/03 09:55:08;;;;;;;1.40;1.30;;;;;;;15.64;37.71;98728.81;5090902;28;20439;-59
2022/04/03 09:57:36;;;;;;;1.43;1.10;;;;;;;15.73;36.44;98739.03;5092060;28;20305;-58
2022/04/03 10:00:04;;;;;;;1.03;0.90;;;;;;;15.94;35.52;98741.25;5092003;28;20262;-59
2022/04/03 10:02:32;;;;;;;1.20;1.03;;;;;;;15.86;35.88;98750.91;5090296;28;20226;-58
2022/04/03 10:04:59;;;;;;;1.57;1.10;;;;;;;15.89;35.65;98729.25;5080974;28;20193;-58
2022/04/03 10:07:27;;;;;;;1.10;1.10;;;;;;;16.15;36.17;98729.63;5080533;28;20191;-58
2022/04/03 10:09:54;;;;;;;1.10;1.00;;;;;;;16.33;36.15;98720.69;5076910;28;20574;-59
2022/04/03 10:12:23;;;;;;;3.30;1.20;;;;;;;16.51;35.84;98718.56;5074818;28;20220;-58
2022/04/03 10:14:52;;;;;;;1.33;1.03;;;;;;;16.52;34.24;98724.63;5077562;28;20194;-58
2022/04/03 10:17:21;;;;;;;0.80;0.80;;;;;;;16.55;34.82;98731.50;5079842;28;20218;-59
2022/04/03 10:19:51;;;;;;;2.53;1.37;;;;;;;16.85;35.06;98728.28;5076145;28;20717;-61
2022/04/03 10:22:23;;;;;;;1.47;1.37;;;;;;;16.82;34.85;98725.75;5076745;28;20265;-61
2022/04/03 10:24:54;;;;;;;1.37;0.90;;;;;;;16.73;35.46;98732.00;5079668;28;20575;-62
2022/04/03 10:27:25;;;;;;;2.33;1.70;;;;;;;16.71;35.09;98738.97;5081157;28;20432;-62
2022/04/03 10:29:57;;;;;;;2.90;2.50;;;;;;;16.81;35.03;98742.22;5081485;28;20195;-62
2022/04/03 10:32:27;;;;;;;1.73;1.63;;;;;;;16.79;34.75;98729.28;5078863;28;20202;-61
2022/04/03 10:34:57;;;;;;;1.30;1.20;;;;;;;16.42;34.66;98741.25;5077260;28;20188;-61
2022/04/03 10:37:26;;;;;;;1.60;1.50;;;;;;;16.13;34.60;98756.47;5070366;28;20595;-61
2022/04/03 10:39:54;;;;;;;1.23;1.20;;;;;;;15.86;34.81;98750.03;5070873;28;20288;-61
2022/04/03 10:42:26;;;;;;;1.70;1.40;;;;;;;15.82;34.45;98748.41;5070660;28;20199;-61
2022/04/03 10:45:30;;;;;;;3.50;1.50;;;;;;;16.08;35.23;98730.66;5070798;28;20246;-60
2022/04/03 10:48:30;;;;;;;4.10;3.63;;;;;;;16.23;34.51;98730.38;5017476;28;20192;-61
2022/04/03 10:51:03;;;;;;;3.03;2.73;;;;;;;16.46;34.41;98748.06;5084872;28;20194;-61
2022/04/03 10:53:32;;;;;;;2.70;1.63;;;;;;;16.26;34.13;98745.03;5080190;28;20270;-61
2022/04/03 10:56:02;;;;;;;1.17;1.00;;;;;;;16.23;33.96;98742.47;5081218;28;20195;-61
2022/04/03 10:58:39;;;;;;;1.70;0.90;;;;;;;15.98;35.10;98757.63;5076909;28;20236;-60
2022/04/03 11:01:12;;;;;;;1.10;1.00;;;;;;;15.92;35.39;98735.25;5079032;28;20788;-60
2022/04/03 11:03:39;;;;;;;1.80;1.70;;;;;;;16.09;35.40;98739.28;5077456;28;20274;-61
2022/04/03 11:06:29;;;;;;;1.90;1.33;;;;;;;16.13;35.25;98753.88;5080280;28;20182;-61
2022/04/03 11:08:59;;;;;;;2.77;0.90;;;;;;;15.92;34.81;98758.56;5081620;28;20206;-61
2022/04/03 11:11:44;;;;;;;1.57;0.83;;;;;;;16.04;35.16;98743.69;5080672;28;20253;-61
2022/04/03 11:14:13;;;;;;;2.67;1.00;;;;;;;16.19;34.88;98743.41;5071707;28;20242;-58
2022/04/03 11:16:55;;;;;;;1.20;1.10;;;;;;;16.08;35.25;98711.66;5071414;28;20456;-57
2022/04/03 11:19:42;;;;;;;3.23;1.30;;;;;;;16.57;34.02;98742.69;5077841;28;20191;-57
2022/04/03 11:22:12;;;;;;;1.40;1.30;;;;;;;16.38;33.69;98732.66;5078992;28;20181;-57
2022/04/03 11:24:39;;;;;;;1.10;0.80;;;;;;;16.34;33.48;98749.16;5079877;28;20195;-61
2022/04/03 11:27:08;;;;;;;1.00;0.93;;;;;;;16.50;33.60;98734.19;5076686;28;20292;-61
2022/04/03 11:29:35;;;;;;;1.20;1.10;;;;;;;16.53;32.43;98749.72;5073989;28;20286;-61
2022/04/03 11:32:09;;;;;;;1.63;1.37;;;;;;;16.53;31.72;98734.97;5071126;28;20620;-61
2022/04/03 11:34:37;;;;;;;0.90;0.90;;;;;;;16.53;31.20;98734.97;5069763;28;20180;-62
2022/04/03 11:37:08;;;;;;;1.40;1.00;;;;;;;16.58;31.76;98741.84;5051160;28;20206;-62
2022/04/03 11:39:38;;;;;;;1.30;1.20;;;;;;;16.57;31.30;98733.19;5066984;28;20195;-62